sensor_id;sensor_type;location;lat;lon;timestamp;P1;durP1;ratioP1;P2;durP2;ratioP2
4547;SDS011;2286;51.570;7.090;2023-07-28T00:00:12;0.63;;;0.63;;
4547;SDS011;2286;51.570;7.090;2023-07-28T00:02:39;0.40;;;0.30;;
4547;SDS011;2286;51.570;7.090;2023-07-28T00:05:06;0.30;;;0.30;;
4547;SDS011;2286;51.570;7.090;2023-07-28T00:07:34;0.40;;;0.40;;
4547;SDS011;2286;51.570;7.090;2023-07-28T00:10:01;0.40;;;0.40;;
4547;SDS011;2286;51.570;7.090;2023-07-28T00:12:30;0.80;;;0.80;;
4547;SDS011;2286;51.570;7.090;2023-07-28T00:14:57;0.40;;;0.40;;
4547;SDS011;2286;51.570;7.090;2023-07-28T00:17:25;1.43;;;1.13;;
4547;SDS011;2286;51.570;7.090;2023-07-28T00:19:52;0.70;;;0.70;;
4547;SDS011;2286;51.570;7.090;2023-07-28T00:22:19;0.40;;;0.40;;
4547;SDS011;2286;51.570;7.090;2023-07-28T00:24:46;0.70;;;0.70;;
4547;SDS011;2286;51.570;7.090;2023-07-28T00:27:13;0.50;;;0.50;;
4547;SDS011;2286;51.570;7.090;2023-07-28T00:29:42;0.60;;;0.60;;
4547;SDS011;2286;51.570;7.090;2023-07-28T00:32:09;1.10;;;1.10;;
4547;SDS011;2286;51.570;7.090;2023-07-28T00:34:37;1.07;;;1.07;;
4547;SDS011;2286;51.570;7.090;2023-07-28T00:37:05;0.90;;;0.90;;
4547;SDS011;2286;51.570;7.090;2023-07-28T00:39:34;0.70;;;0.70;;
4547;SDS011;2286;51.570;7.090;2023-07-28T00:42:01;0.90;;;0.90;;
4547;SDS011;2286;51.570;7.090;2023-07-28T00:44:28;0.50;;;0.50;;
4547;SDS011;2286;51.570;7.090;2023-07-28T00:46:56;0.40;;;0.40;;
4547;SDS011;2286;51.570;7.090;2023-07-28T00:49:24;0.80;;;0.80;;
4547;SDS011;2286;51.570;7.090;2023-07-28T00:51:51;1.60;;;1.27;;
4547;SDS011;2286;51.570;7.090;2023-07-28T00:54:18;0.30;;;0.30;;
4547;SDS011;2286;51.570;7.090;2023-07-28T00:56:45;1.87;;;1.63;;
4547;SDS011;2286;51.570;7.090;2023-07-28T00:59:14;2.30;;;1.63;;
4547;SDS011;2286;51.570;7.090;2023-07-28T01:01:41;0.40;;;0.40;;
4547;SDS011;2286;51.570;7.090;2023-07-28T01:04:09;1.33;;;0.63;;
4547;SDS011;2286;51.570;7.090;2023-07-28T01:06:37;0.40;;;0.40;;
4547;SDS011;2286;51.570;7.090;2023-07-28T01:09:09;0.30;;;0.30;;
4547;SDS011;2286;51.570;7.090;2023-07-28T01:11:50;0.40;;;0.40;;
4547;SDS011;2286;51.570;7.090;2023-07-28T01:14:19;0.83;;;0.83;;
4547;SDS011;2286;51.570;7.090;2023-07-28T01:16:46;0.40;;;0.40;;
4547;SDS011;2286;51.570;7.090;2023-07-28T01:19:14;0.30;;;0.30;;
4547;SDS011;2286;51.570;7.090;2023-07-28T01:21:44;0.30;;;0.30;;
4547;SDS011;2286;51.570;7.090;2023-07-28T01:24:14;0.30;;;0.30;;
4547;SDS011;2286;51.570;7.090;2023-07-28T01:26:47;0.40;;;0.40;;
4547;SDS011;2286;51.570;7.090;2023-07-28T01:29:16;0.53;;;0.53;;
4547;SDS011;2286;51.570;7.090;2023-07-28T01:31:45;0.70;;;0.70;;
4547;SDS011;2286;51.570;7.090;2023-07-28T01:34:13;0.50;;;0.50;;
4547;SDS011;2286;51.570;7.090;2023-07-28T01:36:40;0.43;;;0.43;;
4547;SDS011;2286;51.570;7.090;2023-07-28T01:39:07;0.30;;;0.30;;
4547;SDS011;2286;51.570;7.090;2023-07-28T01:41:33;0.40;;;0.40;;
4547;SDS011;2286;51.570;7.090;2023-07-28T01:44:02;0.40;;;0.40;;
4547;SDS011;2286;51.570;7.090;2023-07-28T01:46:28;0.70;;;0.70;;
4547;SDS011;2286;51.570;7.090;2023-07-28T01:48:55;0.30;;;0.30;;
4547;SDS011;2286;51.570;7.090;2023-07-28T01:51:22;0.30;;;0.30;;
4547;SDS011;2286;51.570;7.090;2023-07-28T01:53:49;0.30;;;0.30;;
4547;SDS011;2286;51.570;7.090;2023-07-28T01:56:15;0.40;;;0.40;;
4547;SDS011;2286;51.570;7.090;2023-07-28T01:58:42;0.50;;;0.50;;
4547;SDS011;2286;51.570;7.090;2023-07-28T02:01:10;0.30;;;0.30;;
4547;SDS011;2286;51.570;7.090;2023-07-28T02:03:38;0.30;;;0.30;;
4547;SDS011;2286;51.570;7.090;2023-07-28T02:06:05;0.50;;;0.50;;
4547;SDS011;2286;51.570;7.090;2023-07-28T02:08:32;1.47;;;0.80;;
4547;SDS011;2286;51.570;7.090;2023-07-28T02:10:59;0.30;;;0.30;;
4547;SDS011;2286;51.570;7.090;2023-07-28T02:13:26;0.40;;;0.30;;
4547;SDS011;2286;51.570;7.090;2023-07-28T02:15:52;0.40;;;0.40;;
4547;SDS011;2286;51.570;7.090;2023-07-28T02:18:21;0.80;;;0.80;;
4547;SDS011;2286;51.570;7.090;2023-07-28T02:20:47;0.50;;;0.50;;
4547;SDS011;2286;51.570;7.090;2023-07-28T02:23:14;0.30;;;0.30;;
4547;SDS011;2286;51.570;7.090;2023-07-28T02:25:41;0.40;;;0.40;;
4547;SDS011;2286;51.570;7.090;2023-07-28T02:28:09;0.40;;;0.40;;
4547;SDS011;2286;51.570;7.090;2023-07-28T02:30:36;0.37;;;0.37;;
4547;SDS011;2286;51.570;7.090;2023-07-28T02:33:03;0.33;;;0.33;;
4547;SDS011;2286;51.570;7.090;2023-07-28T02:35:31;0.50;;;0.50;;
4547;SDS011;2286;51.570;7.090;2023-07-28T02:37:58;0.40;;;0.40;;
4547;SDS011;2286;51.570;7.090;2023-07-28T02:40:25;0.33;;;0.30;;
4547;SDS011;2286;51.570;7.090;2023-07-28T02:42:52;0.30;;;0.30;;
4547;SDS011;2286;51.570;7.090;2023-07-28T02:45:19;0.50;;;0.50;;
4547;SDS011;2286;51.570;7.090;2023-07-28T02:47:46;0.63;;;0.63;;
4547;SDS011;2286;51.570;7.090;2023-07-28T02:50:12;0.30;;;0.30;;
4547;SDS011;2286;51.570;7.090;2023-07-28T02:52:41;0.30;;;0.30;;
4547;SDS011;2286;51.570;7.090;2023-07-28T02:55:08;0.30;;;0.30;;
4547;SDS011;2286;51.570;7.090;2023-07-28T02:57:34;0.30;;;0.30;;
4547;SDS011;2286;51.570;7.090;2023-07-28T03:00:01;0.40;;;0.40;;
4547;SDS011;2286;51.570;7.090;2023-07-28T03:02:30;0.70;;;0.70;;
4547;SDS011;2286;51.570;7.090;2023-07-28T03:04:57;1.43;;;1.20;;
4547;SDS011;2286;51.570;7.090;2023-07-28T03:07:24;0.40;;;0.40;;
4547;SDS011;2286;51.570;7.090;2023-07-28T03:09:52;0.30;;;0.30;;
4547;SDS011;2286;51.570;7.090;2023-07-28T03:12:19;0.30;;;0.30;;
4547;SDS011;2286;51.570;7.090;2023-07-28T03:14:46;1.17;;;1.17;;
4547;SDS011;2286;51.570;7.090;2023-07-28T03:17:13;0.43;;;0.43;;
4547;SDS011;2286;51.570;7.090;2023-07-28T03:19:40;1.27;;;1.27;;
4547;SDS011;2286;51.570;7.090;2023-07-28T03:22:08;0.47;;;0.47;;
4547;SDS011;2286;51.570;7.090;2023-07-28T03:24:35;0.80;;;0.80;;
4547;SDS011;2286;51.570;7.090;2023-07-28T03:27:04;0.50;;;0.50;;
4547;SDS011;2286;51.570;7.090;2023-07-28T03:29:33;1.70;;;1.03;;
4547;SDS011;2286;51.570;7.090;2023-07-28T03:32:03;0.43;;;0.43;;
4547;SDS011;2286;51.570;7.090;2023-07-28T03:34:32;1.33;;;1.13;;
4547;SDS011;2286;51.570;7.090;2023-07-28T03:37:00;1.20;;;1.17;;
4547;SDS011;2286;51.570;7.090;2023-07-28T03:39:29;1.30;;;1.30;;
4547;SDS011;2286;51.570;7.090;2023-07-28T03:41:59;0.60;;;0.60;;
4547;SDS011;2286;51.570;7.090;2023-07-28T03:44:30;0.90;;;0.90;;
4547;SDS011;2286;51.570;7.090;2023-07-28T03:46:58;0.50;;;0.50;;
4547;SDS011;2286;51.570;7.090;2023-07-28T03:49:29;0.67;;;0.67;;
4547;SDS011;2286;51.570;7.090;2023-07-28T03:51:58;0.30;;;0.30;;
4547;SDS011;2286;51.570;7.090;2023-07-28T03:54:26;0.40;;;0.40;;
4547;SDS011;2286;51.570;7.090;2023-07-28T03:56:54;0.50;;;0.50;;
4547;SDS011;2286;51.570;7.090;2023-07-28T03:59:22;0.60;;;0.60;;
4547;SDS011;2286;51.570;7.090;2023-07-28T04:01:52;0.33;;;0.33;;
4547;SDS011;2286;51.570;7.090;2023-07-28T04:04:20;0.30;;;0.30;;
4547;SDS011;2286;51.570;7.090;2023-07-28T04:06:50;0.30;;;0.30;;
4547;SDS011;2286;51.570;7.090;2023-07-28T04:09:18;0.73;;;0.73;;
4547;SDS011;2286;51.570;7.090;2023-07-28T04:11:47;0.37;;;0.37;;
4547;SDS011;2286;51.570;7.090;2023-07-28T04:14:16;0.37;;;0.30;;
4547;SDS011;2286;51.570;7.090;2023-07-28T04:16:44;0.30;;;0.30;;
4547;SDS011;2286;51.570;7.090;2023-07-28T04:19:14;0.40;;;0.40;;
4547;SDS011;2286;51.570;7.090;2023-07-28T04:21:42;0.30;;;0.30;;
4547;SDS011;2286;51.570;7.090;2023-07-28T04:24:11;0.40;;;0.40;;
4547;SDS011;2286;51.570;7.090;2023-07-28T04:26:39;0.40;;;0.40;;
4547;SDS011;2286;51.570;7.090;2023-07-28T04:29:09;0.50;;;0.50;;
4547;SDS011;2286;51.570;7.090;2023-07-28T04:31:36;0.30;;;0.30;;
4547;SDS011;2286;51.570;7.090;2023-07-28T04:34:05;0.50;;;0.50;;
4547;SDS011;2286;51.570;7.090;2023-07-28T04:36:34;2.57;;;2.47;;
4547;SDS011;2286;51.570;7.090;2023-07-28T04:39:03;0.40;;;0.40;;
4547;SDS011;2286;51.570;7.090;2023-07-28T04:41:32;0.30;;;0.30;;
4547;SDS011;2286;51.570;7.090;2023-07-28T04:44:01;0.30;;;0.30;;
4547;SDS011;2286;51.570;7.090;2023-07-28T04:46:29;1.23;;;1.13;;
4547;SDS011;2286;51.570;7.090;2023-07-28T04:48:58;0.57;;;0.57;;
4547;SDS011;2286;51.570;7.090;2023-07-28T04:51:28;0.50;;;0.50;;
4547;SDS011;2286;51.570;7.090;2023-07-28T04:53:58;1.07;;;1.07;;
4547;SDS011;2286;51.570;7.090;2023-07-28T04:56:26;0.30;;;0.30;;
4547;SDS011;2286;51.570;7.090;2023-07-28T04:58:55;0.80;;;0.67;;
4547;SDS011;2286;51.570;7.090;2023-07-28T05:01:24;0.33;;;0.33;;
4547;SDS011;2286;51.570;7.090;2023-07-28T05:03:52;0.83;;;0.83;;
4547;SDS011;2286;51.570;7.090;2023-07-28T05:06:20;0.50;;;0.50;;
4547;SDS011;2286;51.570;7.090;2023-07-28T05:08:49;1.00;;;1.00;;
4547;SDS011;2286;51.570;7.090;2023-07-28T05:11:20;0.40;;;0.40;;
4547;SDS011;2286;51.570;7.090;2023-07-28T05:13:51;5.83;;;2.13;;
4547;SDS011;2286;51.570;7.090;2023-07-28T05:16:20;0.40;;;0.40;;
4547;SDS011;2286;51.570;7.090;2023-07-28T05:18:48;1.17;;;1.07;;
4547;SDS011;2286;51.570;7.090;2023-07-28T05:21:17;0.50;;;0.50;;
4547;SDS011;2286;51.570;7.090;2023-07-28T05:23:45;0.30;;;0.30;;
4547;SDS011;2286;51.570;7.090;2023-07-28T05:26:14;0.83;;;0.80;;
4547;SDS011;2286;51.570;7.090;2023-07-28T05:28:44;0.93;;;0.93;;
4547;SDS011;2286;51.570;7.090;2023-07-28T05:31:12;0.40;;;0.40;;
4547;SDS011;2286;51.570;7.090;2023-07-28T05:33:41;0.40;;;0.40;;
4547;SDS011;2286;51.570;7.090;2023-07-28T05:36:12;0.67;;;0.60;;
4547;SDS011;2286;51.570;7.090;2023-07-28T05:38:40;0.93;;;0.93;;
4547;SDS011;2286;51.570;7.090;2023-07-28T05:41:10;2.00;;;0.60;;
4547;SDS011;2286;51.570;7.090;2023-07-28T05:43:39;1.37;;;1.27;;
4547;SDS011;2286;51.570;7.090;2023-07-28T05:46:08;0.60;;;0.60;;
4547;SDS011;2286;51.570;7.090;2023-07-28T05:48:39;0.40;;;0.40;;
4547;SDS011;2286;51.570;7.090;2023-07-28T05:51:07;0.50;;;0.50;;
4547;SDS011;2286;51.570;7.090;2023-07-28T05:53:35;0.30;;;0.30;;
4547;SDS011;2286;51.570;7.090;2023-07-28T05:56:03;0.50;;;0.50;;
4547;SDS011;2286;51.570;7.090;2023-07-28T05:58:32;0.40;;;0.40;;
4547;SDS011;2286;51.570;7.090;2023-07-28T06:01:03;0.50;;;0.50;;
4547;SDS011;2286;51.570;7.090;2023-07-28T06:03:33;2.30;;;1.63;;
4547;SDS011;2286;51.570;7.090;2023-07-28T06:06:01;0.70;;;0.70;;
4547;SDS011;2286;51.570;7.090;2023-07-28T06:08:30;0.33;;;0.30;;
4547;SDS011;2286;51.570;7.090;2023-07-28T06:10:57;0.80;;;0.80;;
4547;SDS011;2286;51.570;7.090;2023-07-28T06:13:23;0.33;;;0.33;;
4547;SDS011;2286;51.570;7.090;2023-07-28T06:15:52;0.30;;;0.30;;
4547;SDS011;2286;51.570;7.090;2023-07-28T06:18:19;0.40;;;0.40;;
4547;SDS011;2286;51.570;7.090;2023-07-28T06:20:48;0.40;;;0.40;;
4547;SDS011;2286;51.570;7.090;2023-07-28T06:23:15;0.30;;;0.30;;
4547;SDS011;2286;51.570;7.090;2023-07-28T06:25:42;0.40;;;0.40;;
4547;SDS011;2286;51.570;7.090;2023-07-28T06:28:10;0.80;;;0.80;;
4547;SDS011;2286;51.570;7.090;2023-07-28T06:30:37;0.40;;;0.40;;
4547;SDS011;2286;51.570;7.090;2023-07-28T06:33:05;0.73;;;0.73;;
4547;SDS011;2286;51.570;7.090;2023-07-28T06:35:32;0.40;;;0.40;;
4547;SDS011;2286;51.570;7.090;2023-07-28T06:38:00;0.40;;;0.40;;
4547;SDS011;2286;51.570;7.090;2023-07-28T06:40:27;0.40;;;0.30;;
4547;SDS011;2286;51.570;7.090;2023-07-28T06:42:54;3.03;;;1.93;;
4547;SDS011;2286;51.570;7.090;2023-07-28T06:45:21;0.37;;;0.30;;
4547;SDS011;2286;51.570;7.090;2023-07-28T06:47:48;0.40;;;0.40;;
4547;SDS011;2286;51.570;7.090;2023-07-28T06:50:16;2.30;;;0.93;;
4547;SDS011;2286;51.570;7.090;2023-07-28T06:52:43;0.97;;;0.93;;
4547;SDS011;2286;51.570;7.090;2023-07-28T06:55:11;17.67;;;1.33;;
4547;SDS011;2286;51.570;7.090;2023-07-28T06:57:38;0.40;;;0.30;;
4547;SDS011;2286;51.570;7.090;2023-07-28T07:00:05;0.50;;;0.50;;
4547;SDS011;2286;51.570;7.090;2023-07-28T07:02:34;0.70;;;0.70;;
4547;SDS011;2286;51.570;7.090;2023-07-28T07:05:01;2.03;;;1.93;;
4547;SDS011;2286;51.570;7.090;2023-07-28T07:07:28;2.30;;;1.03;;
4547;SDS011;2286;51.570;7.090;2023-07-28T07:09:55;0.50;;;0.40;;
4547;SDS011;2286;51.570;7.090;2023-07-28T07:12:23;0.40;;;0.30;;
4547;SDS011;2286;51.570;7.090;2023-07-28T07:14:50;0.40;;;0.30;;
4547;SDS011;2286;51.570;7.090;2023-07-28T07:17:16;0.50;;;0.50;;
4547;SDS011;2286;51.570;7.090;2023-07-28T07:19:43;0.50;;;0.50;;
4547;SDS011;2286;51.570;7.090;2023-07-28T07:22:09;0.50;;;0.40;;
4547;SDS011;2286;51.570;7.090;2023-07-28T07:24:36;0.40;;;0.30;;
4547;SDS011;2286;51.570;7.090;2023-07-28T07:27:03;0.70;;;0.70;;
4547;SDS011;2286;51.570;7.090;2023-07-28T07:29:32;0.40;;;0.30;;
4547;SDS011;2286;51.570;7.090;2023-07-28T07:31:59;0.40;;;0.40;;
4547;SDS011;2286;51.570;7.090;2023-07-28T07:34:25;1.27;;;0.97;;
4547;SDS011;2286;51.570;7.090;2023-07-28T07:36:52;0.40;;;0.40;;
4547;SDS011;2286;51.570;7.090;2023-07-28T07:39:21;0.50;;;0.50;;
4547;SDS011;2286;51.570;7.090;2023-07-28T07:41:48;0.53;;;0.53;;
4547;SDS011;2286;51.570;7.090;2023-07-28T07:44:14;0.40;;;0.30;;
4547;SDS011;2286;51.570;7.090;2023-07-28T07:46:42;0.50;;;0.50;;
4547;SDS011;2286;51.570;7.090;2023-07-28T07:49:09;0.70;;;0.70;;
4547;SDS011;2286;51.570;7.090;2023-07-28T07:51:36;0.40;;;0.30;;
4547;SDS011;2286;51.570;7.090;2023-07-28T07:54:03;1.33;;;1.23;;
4547;SDS011;2286;51.570;7.090;2023-07-28T07:56:29;0.90;;;0.83;;
4547;SDS011;2286;51.570;7.090;2023-07-28T07:58:56;2.27;;;2.10;;
4547;SDS011;2286;51.570;7.090;2023-07-28T08:01:23;0.60;;;0.60;;
4547;SDS011;2286;51.570;7.090;2023-07-28T08:03:51;0.50;;;0.47;;
4547;SDS011;2286;51.570;7.090;2023-07-28T08:06:18;0.40;;;0.30;;
4547;SDS011;2286;51.570;7.090;2023-07-28T08:08:45;1.13;;;1.03;;
4547;SDS011;2286;51.570;7.090;2023-07-28T08:11:12;0.50;;;0.50;;
4547;SDS011;2286;51.570;7.090;2023-07-28T08:13:38;0.40;;;0.30;;
4547;SDS011;2286;51.570;7.090;2023-07-28T08:16:05;0.50;;;0.50;;
4547;SDS011;2286;51.570;7.090;2023-07-28T08:18:32;0.40;;;0.30;;
4547;SDS011;2286;51.570;7.090;2023-07-28T08:21:00;0.40;;;0.40;;
4547;SDS011;2286;51.570;7.090;2023-07-28T08:23:27;0.50;;;0.40;;
4547;SDS011;2286;51.570;7.090;2023-07-28T08:25:54;0.40;;;0.30;;
4547;SDS011;2286;51.570;7.090;2023-07-28T08:28:20;0.40;;;0.30;;
4547;SDS011;2286;51.570;7.090;2023-07-28T08:30:53;0.40;;;0.40;;
4547;SDS011;2286;51.570;7.090;2023-07-28T08:33:21;0.40;;;0.40;;
4547;SDS011;2286;51.570;7.090;2023-07-28T08:35:48;0.40;;;0.40;;
4547;SDS011;2286;51.570;7.090;2023-07-28T08:38:16;0.50;;;0.47;;
4547;SDS011;2286;51.570;7.090;2023-07-28T08:40:43;2.20;;;1.03;;
4547;SDS011;2286;51.570;7.090;2023-07-28T08:43:10;0.40;;;0.37;;
4547;SDS011;2286;51.570;7.090;2023-07-28T08:45:37;0.50;;;0.40;;
4547;SDS011;2286;51.570;7.090;2023-07-28T08:48:04;0.50;;;0.50;;
4547;SDS011;2286;51.570;7.090;2023-07-28T08:50:31;0.40;;;0.33;;
4547;SDS011;2286;51.570;7.090;2023-07-28T08:52:58;21.07;;;19.10;;
4547;SDS011;2286;51.570;7.090;2023-07-28T08:55:27;17.90;;;16.33;;
4547;SDS011;2286;51.570;7.090;2023-07-28T08:57:53;14.60;;;13.40;;
4547;SDS011;2286;51.570;7.090;2023-07-28T09:00:19;11.50;;;10.60;;
4547;SDS011;2286;51.570;7.090;2023-07-28T09:02:50;9.40;;;8.50;;
4547;SDS011;2286;51.570;7.090;2023-07-28T09:05:17;10.20;;;9.37;;
4547;SDS011;2286;51.570;7.090;2023-07-28T09:07:45;9.90;;;9.20;;
4547;SDS011;2286;51.570;7.090;2023-07-28T09:10:11;9.67;;;8.97;;
4547;SDS011;2286;51.570;7.090;2023-07-28T09:12:45;9.50;;;8.80;;
4547;SDS011;2286;51.570;7.090;2023-07-28T09:15:13;10.77;;;9.83;;
4547;SDS011;2286;51.570;7.090;2023-07-28T09:17:42;10.13;;;9.33;;
4547;SDS011;2286;51.570;7.090;2023-07-28T09:20:10;9.00;;;8.30;;
4547;SDS011;2286;51.570;7.090;2023-07-28T09:22:39;8.60;;;8.00;;
4547;SDS011;2286;51.570;7.090;2023-07-28T09:25:11;8.60;;;8.00;;
4547;SDS011;2286;51.570;7.090;2023-07-28T09:27:39;7.60;;;6.90;;
4547;SDS011;2286;51.570;7.090;2023-07-28T09:30:07;7.27;;;6.67;;
4547;SDS011;2286;51.570;7.090;2023-07-28T09:32:34;5.77;;;5.27;;
4547;SDS011;2286;51.570;7.090;2023-07-28T09:35:06;5.60;;;5.30;;
4547;SDS011;2286;51.570;7.090;2023-07-28T09:37:35;5.40;;;5.00;;
4547;SDS011;2286;51.570;7.090;2023-07-28T09:40:04;4.77;;;4.37;;
4547;SDS011;2286;51.570;7.090;2023-07-28T09:42:36;4.80;;;4.50;;
4547;SDS011;2286;51.570;7.090;2023-07-28T09:45:04;4.50;;;4.20;;
4547;SDS011;2286;51.570;7.090;2023-07-28T09:47:35;5.50;;;3.97;;
4547;SDS011;2286;51.570;7.090;2023-07-28T09:50:02;4.57;;;4.23;;
4547;SDS011;2286;51.570;7.090;2023-07-28T09:52:31;4.57;;;4.17;;
4547;SDS011;2286;51.570;7.090;2023-07-28T09:55:02;5.00;;;4.70;;
4547;SDS011;2286;51.570;7.090;2023-07-28T09:57:33;5.47;;;5.17;;
4547;SDS011;2286;51.570;7.090;2023-07-28T10:00:05;5.13;;;4.83;;
4547;SDS011;2286;51.570;7.090;2023-07-28T10:02:37;5.90;;;5.50;;
4547;SDS011;2286;51.570;7.090;2023-07-28T10:05:04;6.20;;;5.80;;
4547;SDS011;2286;51.570;7.090;2023-07-28T10:07:33;4.33;;;4.07;;
4547;SDS011;2286;51.570;7.090;2023-07-28T10:10:03;4.03;;;3.77;;
4547;SDS011;2286;51.570;7.090;2023-07-28T10:12:36;2.60;;;2.50;;
4547;SDS011;2286;51.570;7.090;2023-07-28T10:15:11;3.07;;;2.90;;
4547;SDS011;2286;51.570;7.090;2023-07-28T10:17:42;3.17;;;2.87;;
4547;SDS011;2286;51.570;7.090;2023-07-28T10:23:07;4.23;;;4.03;;
4547;SDS011;2286;51.570;7.090;2023-07-28T10:25:39;4.17;;;3.87;;
4547;SDS011;2286;51.570;7.090;2023-07-28T10:28:07;4.03;;;3.83;;
4547;SDS011;2286;51.570;7.090;2023-07-28T10:30:54;6.70;;;6.20;;
4547;SDS011;2286;51.570;7.090;2023-07-28T10:33:31;5.63;;;5.30;;
4547;SDS011;2286;51.570;7.090;2023-07-28T10:35:59;6.03;;;5.60;;
4547;SDS011;2286;51.570;7.090;2023-07-28T10:38:37;6.73;;;6.23;;
4547;SDS011;2286;51.570;7.090;2023-07-28T10:41:05;7.97;;;7.47;;
4547;SDS011;2286;51.570;7.090;2023-07-28T10:43:39;7.70;;;7.10;;
4547;SDS011;2286;51.570;7.090;2023-07-28T10:46:08;6.63;;;6.23;;
4547;SDS011;2286;51.570;7.090;2023-07-28T10:48:37;6.17;;;5.70;;
4547;SDS011;2286;51.570;7.090;2023-07-28T10:51:08;5.33;;;5.00;;
4547;SDS011;2286;51.570;7.090;2023-07-28T10:53:36;6.00;;;5.50;;
4547;SDS011;2286;51.570;7.090;2023-07-28T10:56:03;5.40;;;4.90;;
4547;SDS011;2286;51.570;7.090;2023-07-28T10:58:33;5.20;;;4.90;;
4547;SDS011;2286;51.570;7.090;2023-07-28T11:01:00;3.80;;;3.60;;
4547;SDS011;2286;51.570;7.090;2023-07-28T11:03:29;3.70;;;3.50;;
4547;SDS011;2286;51.570;7.090;2023-07-28T11:05:55;3.50;;;3.30;;
4547;SDS011;2286;51.570;7.090;2023-07-28T11:08:22;3.13;;;2.80;;
4547;SDS011;2286;51.570;7.090;2023-07-28T11:10:49;3.20;;;3.00;;
4547;SDS011;2286;51.570;7.090;2023-07-28T11:13:16;2.80;;;2.60;;
4547;SDS011;2286;51.570;7.090;2023-07-28T11:15:43;2.77;;;2.50;;
4547;SDS011;2286;51.570;7.090;2023-07-28T11:18:10;4.43;;;3.07;;
4547;SDS011;2286;51.570;7.090;2023-07-28T11:20:38;4.40;;;3.73;;
4547;SDS011;2286;51.570;7.090;2023-07-28T11:23:05;4.83;;;4.53;;
4547;SDS011;2286;51.570;7.090;2023-07-28T11:25:33;4.10;;;3.80;;
4547;SDS011;2286;51.570;7.090;2023-07-28T11:28:01;3.60;;;3.40;;
4547;SDS011;2286;51.570;7.090;2023-07-28T11:30:30;3.90;;;3.57;;
4547;SDS011;2286;51.570;7.090;2023-07-28T11:32:58;4.60;;;4.23;;
4547;SDS011;2286;51.570;7.090;2023-07-28T11:35:25;3.73;;;3.53;;
4547;SDS011;2286;51.570;7.090;2023-07-28T11:37:53;2.70;;;2.60;;
4547;SDS011;2286;51.570;7.090;2023-07-28T11:40:22;3.13;;;3.00;;
4547;SDS011;2286;51.570;7.090;2023-07-28T11:42:51;2.60;;;2.40;;
4547;SDS011;2286;51.570;7.090;2023-07-28T11:45:19;2.60;;;2.40;;
4547;SDS011;2286;51.570;7.090;2023-07-28T11:47:51;4.73;;;2.50;;
4547;SDS011;2286;51.570;7.090;2023-07-28T11:50:24;4.00;;;1.77;;
4547;SDS011;2286;51.570;7.090;2023-07-28T11:52:53;3.67;;;2.60;;
4547;SDS011;2286;51.570;7.090;2023-07-28T11:55:21;2.20;;;2.10;;
4547;SDS011;2286;51.570;7.090;2023-07-28T11:57:49;2.03;;;1.93;;
4547;SDS011;2286;51.570;7.090;2023-07-28T12:00:17;1.93;;;1.70;;
4547;SDS011;2286;51.570;7.090;2023-07-28T12:02:59;2.93;;;2.10;;
4547;SDS011;2286;51.570;7.090;2023-07-28T12:05:28;2.20;;;2.00;;
4547;SDS011;2286;51.570;7.090;2023-07-28T12:07:57;2.73;;;1.73;;
4547;SDS011;2286;51.570;7.090;2023-07-28T12:10:23;1.83;;;1.57;;
4547;SDS011;2286;51.570;7.090;2023-07-28T12:12:50;2.23;;;1.93;;
4547;SDS011;2286;51.570;7.090;2023-07-28T12:15:23;2.60;;;2.27;;
4547;SDS011;2286;51.570;7.090;2023-07-28T12:18:06;1.57;;;1.47;;
4547;SDS011;2286;51.570;7.090;2023-07-28T12:20:37;2.80;;;1.73;;
4547;SDS011;2286;51.570;7.090;2023-07-28T12:23:06;1.77;;;1.67;;
4547;SDS011;2286;51.570;7.090;2023-07-28T12:25:35;2.17;;;1.80;;
4547;SDS011;2286;51.570;7.090;2023-07-28T12:28:03;1.70;;;1.53;;
4547;SDS011;2286;51.570;7.090;2023-07-28T12:30:30;2.33;;;1.67;;
4547;SDS011;2286;51.570;7.090;2023-07-28T12:32:57;1.70;;;1.60;;
4547;SDS011;2286;51.570;7.090;2023-07-28T12:35:25;5.87;;;2.00;;
4547;SDS011;2286;51.570;7.090;2023-07-28T12:37:55;1.67;;;1.47;;
4547;SDS011;2286;51.570;7.090;2023-07-28T12:40:26;3.97;;;1.70;;
4547;SDS011;2286;51.570;7.090;2023-07-28T12:42:54;1.40;;;1.20;;
4547;SDS011;2286;51.570;7.090;2023-07-28T12:45:21;1.90;;;1.53;;
4547;SDS011;2286;51.570;7.090;2023-07-28T12:47:50;2.43;;;1.67;;
4547;SDS011;2286;51.570;7.090;2023-07-28T12:50:18;1.67;;;1.57;;
4547;SDS011;2286;51.570;7.090;2023-07-28T12:52:45;1.70;;;1.60;;
4547;SDS011;2286;51.570;7.090;2023-07-28T12:55:12;1.63;;;1.53;;
4547;SDS011;2286;51.570;7.090;2023-07-28T12:57:40;2.00;;;1.33;;
4547;SDS011;2286;51.570;7.090;2023-07-28T13:00:08;3.57;;;1.40;;
4547;SDS011;2286;51.570;7.090;2023-07-28T13:02:38;1.33;;;1.20;;
4547;SDS011;2286;51.570;7.090;2023-07-28T13:05:06;1.70;;;1.40;;
4547;SDS011;2286;51.570;7.090;2023-07-28T13:07:34;1.40;;;1.30;;
4547;SDS011;2286;51.570;7.090;2023-07-28T13:10:01;2.10;;;1.23;;
4547;SDS011;2286;51.570;7.090;2023-07-28T13:12:28;2.23;;;1.50;;
4547;SDS011;2286;51.570;7.090;2023-07-28T13:14:56;2.87;;;1.73;;
4547;SDS011;2286;51.570;7.090;2023-07-28T13:17:23;3.47;;;1.47;;
4547;SDS011;2286;51.570;7.090;2023-07-28T13:19:50;1.30;;;1.10;;
4547;SDS011;2286;51.570;7.090;2023-07-28T13:22:16;1.30;;;1.20;;
4547;SDS011;2286;51.570;7.090;2023-07-28T13:24:43;1.27;;;1.17;;
4547;SDS011;2286;51.570;7.090;2023-07-28T13:27:10;1.40;;;1.30;;
4547;SDS011;2286;51.570;7.090;2023-07-28T13:29:37;2.20;;;1.37;;
4547;SDS011;2286;51.570;7.090;2023-07-28T13:32:14;3.83;;;1.60;;
4547;SDS011;2286;51.570;7.090;2023-07-28T13:34:42;2.53;;;1.73;;
4547;SDS011;2286;51.570;7.090;2023-07-28T13:37:08;2.77;;;1.40;;
4547;SDS011;2286;51.570;7.090;2023-07-28T13:39:35;2.43;;;1.30;;
4547;SDS011;2286;51.570;7.090;2023-07-28T13:42:02;2.70;;;1.40;;
4547;SDS011;2286;51.570;7.090;2023-07-28T13:44:29;1.20;;;1.10;;
4547;SDS011;2286;51.570;7.090;2023-07-28T13:46:56;1.63;;;1.10;;
4547;SDS011;2286;51.570;7.090;2023-07-28T13:49:24;2.00;;;1.20;;
4547;SDS011;2286;51.570;7.090;2023-07-28T13:51:51;2.10;;;1.10;;
4547;SDS011;2286;51.570;7.090;2023-07-28T13:54:18;3.20;;;1.10;;
4547;SDS011;2286;51.570;7.090;2023-07-28T13:56:44;1.37;;;1.27;;
4547;SDS011;2286;51.570;7.090;2023-07-28T13:59:11;1.60;;;1.10;;
4547;SDS011;2286;51.570;7.090;2023-07-28T14:01:38;0.90;;;0.90;;
4547;SDS011;2286;51.570;7.090;2023-07-28T14:04:05;1.20;;;1.10;;
4547;SDS011;2286;51.570;7.090;2023-07-28T14:06:33;4.60;;;1.67;;
4547;SDS011;2286;51.570;7.090;2023-07-28T14:09:00;1.57;;;1.47;;
4547;SDS011;2286;51.570;7.090;2023-07-28T14:11:26;1.90;;;1.20;;
4547;SDS011;2286;51.570;7.090;2023-07-28T14:13:53;1.50;;;1.40;;
4547;SDS011;2286;51.570;7.090;2023-07-28T14:16:20;1.20;;;1.10;;
4547;SDS011;2286;51.570;7.090;2023-07-28T14:18:47;1.37;;;1.27;;
4547;SDS011;2286;51.570;7.090;2023-07-28T14:21:15;1.53;;;1.00;;
4547;SDS011;2286;51.570;7.090;2023-07-28T14:23:43;2.93;;;2.03;;
4547;SDS011;2286;51.570;7.090;2023-07-28T14:26:10;1.63;;;1.37;;
4547;SDS011;2286;51.570;7.090;2023-07-28T14:28:37;1.40;;;1.30;;
4547;SDS011;2286;51.570;7.090;2023-07-28T14:31:04;2.27;;;1.13;;
4547;SDS011;2286;51.570;7.090;2023-07-28T14:33:31;2.03;;;1.40;;
4547;SDS011;2286;51.570;7.090;2023-07-28T14:35:57;2.20;;;1.10;;
4547;SDS011;2286;51.570;7.090;2023-07-28T14:38:25;1.67;;;1.50;;
4547;SDS011;2286;51.570;7.090;2023-07-28T14:40:53;2.63;;;1.20;;
4547;SDS011;2286;51.570;7.090;2023-07-28T14:43:20;1.20;;;1.10;;
4547;SDS011;2286;51.570;7.090;2023-07-28T14:45:48;2.43;;;1.30;;
4547;SDS011;2286;51.570;7.090;2023-07-28T14:48:15;1.20;;;1.10;;
4547;SDS011;2286;51.570;7.090;2023-07-28T14:50:42;2.53;;;1.50;;
4547;SDS011;2286;51.570;7.090;2023-07-28T14:53:27;3.00;;;1.40;;
4547;SDS011;2286;51.570;7.090;2023-07-28T14:55:56;1.30;;;1.20;;
4547;SDS011;2286;51.570;7.090;2023-07-28T14:58:23;1.50;;;1.40;;
4547;SDS011;2286;51.570;7.090;2023-07-28T15:00:50;1.30;;;1.20;;
4547;SDS011;2286;51.570;7.090;2023-07-28T15:03:17;1.40;;;1.10;;
4547;SDS011;2286;51.570;7.090;2023-07-28T15:05:44;1.43;;;1.23;;
4547;SDS011;2286;51.570;7.090;2023-07-28T15:08:11;1.20;;;1.10;;
4547;SDS011;2286;51.570;7.090;2023-07-28T15:10:38;2.40;;;1.23;;
4547;SDS011;2286;51.570;7.090;2023-07-28T15:13:06;2.70;;;1.37;;
4547;SDS011;2286;51.570;7.090;2023-07-28T15:15:32;1.17;;;1.07;;
4547;SDS011;2286;51.570;7.090;2023-07-28T15:17:59;1.30;;;1.20;;
4547;SDS011;2286;51.570;7.090;2023-07-28T15:20:26;1.50;;;1.10;;
4547;SDS011;2286;51.570;7.090;2023-07-28T15:22:53;1.20;;;1.00;;